Time;durP1;ratioP1;P1;durP2;ratioP2;P2;SDS_P1;SDS_P2;PMS_P1;PMS_P2;Temp;Humidity;BMP_temperature;BMP_pressure;BME280_temperature;BME280_humidity;BME280_pressure;Samples;Min_cycle;Max_cycle;Signal;HPM_P1;HPM_P2
2021/10/20 00:02:25;;;;;;;13.47;7.93;;;;;;;-145.64;100.00;65708.53;5048466;28;20210;-68
2021/10/20 00:04:54;;;;;;;14.57;8.07;;;;;;;-145.64;100.00;65708.53;5048131;28;20223;-67
2021/10/20 00:07:23;;;;;;;15.23;7.67;;;;;;;-145.64;100.00;65708.53;5045584;28;20199;-67
2021/10/20 00:09:51;;;;;;;13.50;7.53;;;;;;;-145.64;100.00;65708.53;5041440;28;20709;-68
2021/10/20 00:12:21;;;;;;;12.43;8.03;;;;;;;-145.64;100.00;65708.53;5046375;28;20652;-67
2021/10/20 00:14:49;;;;;;;15.60;8.07;;;;;;;-145.64;100.00;65708.53;5048312;28;20208;-67
2021/10/20 00:17:19;;;;;;;14.13;8.23;;;;;;;-145.64;100.00;65708.53;5047937;28;20209;-67
2021/10/20 00:19:49;;;;;;;13.10;8.03;;;;;;;-145.64;100.00;65708.53;5048081;28;20194;-68
2021/10/20 00:22:17;;;;;;;13.67;7.70;;;;;;;-145.64;100.00;65708.53;5047688;28;20229;-67
2021/10/20 00:24:46;;;;;;;15.90;8.13;;;;;;;-145.64;100.00;65708.53;5048042;28;20699;-67
2021/10/20 00:27:14;;;;;;;14.47;7.90;;;;;;;-145.64;100.00;65708.53;5044972;28;20782;-67
2021/10/20 00:29:44;;;;;;;14.43;7.60;;;;;;;-145.64;100.00;65708.53;5037415;28;20275;-69
2021/10/20 00:32:12;;;;;;;13.57;7.90;;;;;;;-145.64;100.00;65708.53;5046352;28;20245;-71
2021/10/20 00:34:40;;;;;;;16.60;8.30;;;;;;;-145.64;100.00;65708.53;5047966;28;20198;-70
2021/10/20 00:37:08;;;;;;;15.00;8.13;;;;;;;-145.64;100.00;65708.53;5047277;28;20294;-71
2021/10/20 00:39:36;;;;;;;16.77;8.57;;;;;;;-145.64;100.00;65708.53;5046908;28;20306;-70
2021/10/20 00:42:05;;;;;;;17.67;9.00;;;;;;;-145.64;100.00;65708.53;5047475;28;20210;-70
2021/10/20 00:44:47;;;;;;;16.70;8.50;;;;;;;-145.64;100.00;65708.53;5044442;28;20298;-70
2021/10/20 00:47:16;;;;;;;16.30;8.63;;;;;;;-145.64;100.00;65708.53;5041651;28;20383;-70
2021/10/20 00:49:45;;;;;;;17.43;8.53;;;;;;;-145.64;100.00;65708.53;5047705;28;20247;-70
2021/10/20 00:52:14;;;;;;;14.33;8.77;;;;;;;-145.64;100.00;65708.53;5047015;28;20230;-68
2021/10/20 00:54:42;;;;;;;14.13;8.47;;;;;;;-145.64;100.00;65708.53;5047461;28;20197;-67
2021/10/20 00:57:12;;;;;;;16.10;9.40;;;;;;;-145.64;100.00;65708.53;5047409;28;20197;-70
2021/10/20 00:59:41;;;;;;;16.77;8.47;;;;;;;-145.64;100.00;65708.53;5047604;28;20498;-70
2021/10/20 01:02:11;;;;;;;14.00;8.70;;;;;;;-145.64;100.00;65708.53;5040622;28;20209;-71
2021/10/20 01:04:40;;;;;;;16.33;8.97;;;;;;;-145.64;100.00;65708.53;5046305;28;20664;-71
2021/10/20 01:07:08;;;;;;;16.50;8.80;;;;;;;-145.64;100.00;65708.53;5045306;28;20242;-70
2021/10/20 01:09:37;;;;;;;299.17;221.57;;;;;;;-145.64;100.00;65708.53;5046628;28;20198;-69
2021/10/20 01:12:06;;;;;;;64.33;52.70;;;;;;;-145.64;100.00;65708.53;5045562;28;20274;-67
2021/10/20 01:14:34;;;;;;;32.47;21.57;;;;;;;-145.64;100.00;65708.53;5045157;28;20612;-68
2021/10/20 01:17:03;;;;;;;179.83;163.63;;;;;;;-145.64;100.00;65708.53;5045896;28;20305;-69
2021/10/20 01:19:33;;;;;;;74.50;67.03;;;;;;;-145.64;100.00;65708.53;5044011;28;20285;-66
2021/10/20 01:22:04;;;;;;;28.63;22.57;;;;;;;-145.64;100.00;65708.53;5046289;28;20284;-67
2021/10/20 01:24:33;;;;;;;48.83;43.63;;;;;;;-145.64;100.00;65708.53;5047497;28;20281;-67
2021/10/20 01:27:01;;;;;;;93.03;83.83;;;;;;;-145.64;100.00;65708.53;5047001;28;20198;-66
2021/10/20 01:29:30;;;;;;;112.40;101.33;;;;;;;-145.64;100.00;65708.53;5047245;28;20209;-67
2021/10/20 01:32:00;;;;;;;26.60;17.70;;;;;;;-145.64;100.00;65708.53;5047016;28;20308;-66
2021/10/20 01:34:29;;;;;;;29.07;23.93;;;;;;;-145.64;100.00;65708.53;5045846;28;20637;-67
2021/10/20 01:37:01;;;;;;;69.67;60.90;;;;;;;-145.64;100.00;65708.53;5043936;28;20289;-67
2021/10/20 01:39:32;;;;;;;14.03;8.37;;;;;;;-145.64;100.00;65708.53;5045614;28;20195;-67
2021/10/20 01:42:00;;;;;;;23.87;18.57;;;;;;;-145.64;100.00;65708.53;5047335;28;20198;-67
2021/10/20 01:44:29;;;;;;;14.87;10.17;;;;;;;-145.64;100.00;65708.53;5046996;28;20218;-70
2021/10/20 01:46:57;;;;;;;13.20;7.37;;;;;;;-145.64;100.00;65708.53;5046971;28;20205;-70
2021/10/20 01:49:26;;;;;;;11.67;6.87;;;;;;;-145.64;100.00;65708.53;5047048;28;20200;-70
2021/10/20 01:51:54;;;;;;;9.67;6.70;;;;;;;-145.64;100.00;65708.53;5047224;28;20739;-70
2021/10/20 01:54:22;;;;;;;12.23;6.87;;;;;;;-145.64;100.00;65708.53;5045833;28;20254;-70
2021/10/20 01:56:54;;;;;;;10.97;6.40;;;;;;;-145.64;100.00;65708.53;5047242;28;20213;-67
2021/10/20 01:59:22;;;;;;;10.87;6.43;;;;;;;-145.64;100.00;65708.53;5047545;28;20695;-67
2021/10/20 02:01:50;;;;;;;10.63;6.47;;;;;;;-145.64;100.00;65708.53;5047218;28;20202;-69
2021/10/20 02:04:19;;;;;;;10.03;6.10;;;;;;;-145.64;100.00;65708.53;5046736;28;20197;-70
2021/10/20 02:06:47;;;;;;;9.30;6.20;;;;;;;-145.64;100.00;65708.53;5049712;28;20195;-70
2021/10/20 02:09:15;;;;;;;8.97;5.83;;;;;;;-145.64;100.00;65708.53;5048904;28;20230;-70
2021/10/20 02:11:45;;;;;;;9.60;6.10;;;;;;;-145.64;100.00;65708.53;5049630;28;20201;-67
2021/10/20 02:14:15;;;;;;;9.67;5.97;;;;;;;-145.64;100.00;65708.53;5050047;28;20228;-67
2021/10/20 02:16:43;;;;;;;9.43;5.83;;;;;;;-145.64;100.00;65708.53;5050165;28;20198;-67
2021/10/20 02:19:13;;;;;;;11.70;5.87;;;;;;;-145.64;100.00;65708.53;5050151;28;20194;-70
2021/10/20 02:21:41;;;;;;;9.97;5.87;;;;;;;-145.64;100.00;65708.53;5050474;28;20204;-70
2021/10/20 02:24:10;;;;;;;8.63;5.80;;;;;;;-145.64;100.00;65708.53;5049776;28;20291;-70
2021/10/20 02:26:38;;;;;;;10.70;5.83;;;;;;;-145.64;100.00;65708.53;5045852;28;20203;-70
2021/10/20 02:29:06;;;;;;;8.53;5.20;;;;;;;-145.64;100.00;65708.53;5048189;28;20246;-70
2021/10/20 02:31:36;;;;;;;9.00;5.87;;;;;;;-145.64;100.00;65708.53;5049180;28;20193;-68
2021/10/20 02:34:04;;;;;;;8.07;5.63;;;;;;;-145.64;100.00;65708.53;5049988;28;20210;-67
2021/10/20 02:36:34;;;;;;;11.23;5.83;;;;;;;-145.64;100.00;65708.53;5050075;28;20665;-67
2021/10/20 02:39:03;;;;;;;10.03;5.57;;;;;;;-145.64;100.00;65708.53;5049974;28;20252;-71
2021/10/20 02:41:31;;;;;;;7.63;4.90;;;;;;;-145.64;100.00;65708.53;5050034;28;20561;-71
2021/10/20 02:43:59;;;;;;;7.83;5.00;;;;;;;-145.64;100.00;65708.53;5043004;28;20203;-70
2021/10/20 02:46:28;;;;;;;8.70;5.63;;;;;;;-145.64;100.00;65708.53;5049737;28;20822;-67
2021/10/20 02:48:57;;;;;;;9.10;5.50;;;;;;;-145.64;100.00;65708.53;5048266;28;20229;-70
2021/10/20 02:51:29;;;;;;;11.13;5.47;;;;;;;-145.64;100.00;65708.53;5049904;28;20223;-70
2021/10/20 02:53:58;;;;;;;29.73;26.57;;;;;;;-145.64;100.00;65708.53;5049174;28;20215;-70
2021/10/20 02:56:27;;;;;;;40.57;30.10;;;;;;;-145.64;100.00;65708.53;5048936;28;20635;-71
2021/10/20 02:58:55;;;;;;;28.07;20.87;;;;;;;-145.64;100.00;65708.53;5041261;28;20561;-71
2021/10/20 03:01:24;;;;;;;16.13;12.87;;;;;;;-145.64;100.00;65708.53;5048609;28;20247;-71
2021/10/20 03:03:52;;;;;;;27.50;24.67;;;;;;;-145.64;100.00;65708.53;5048476;28;20205;-71
2021/10/20 03:06:22;;;;;;;23.33;21.00;;;;;;;-145.64;100.00;65708.53;5047255;28;20200;-71
2021/10/20 03:08:51;;;;;;;27.23;24.50;;;;;;;-145.64;100.00;65708.53;5049566;28;20676;-71
2021/10/20 03:11:19;;;;;;;283.90;258.57;;;;;;;-145.64;100.00;65708.53;5048745;28;20191;-71
2021/10/20 03:13:48;;;;;;;16.00;12.87;;;;;;;-145.64;100.00;65708.53;5049199;28;20594;-71
2021/10/20 03:16:16;;;;;;;10.50;8.87;;;;;;;-145.64;100.00;65708.53;5048789;28;20302;-71
2021/10/20 03:18:44;;;;;;;8.67;6.23;;;;;;;-145.64;100.00;65708.53;5038478;28;20207;-71
2021/10/20 03:21:12;;;;;;;156.57;141.27;;;;;;;-145.64;100.00;65708.53;5047587;28;20207;-71
2021/10/20 03:23:42;;;;;;;7.93;4.63;;;;;;;-145.64;100.00;65708.53;5047776;28;20190;-71
2021/10/20 03:26:10;;;;;;;5.10;4.10;;;;;;;-145.64;100.00;65708.53;5036805;28;20216;-71
2021/10/20 03:28:39;;;;;;;10.87;6.93;;;;;;;-145.64;100.00;65708.53;5040673;28;20279;-71
2021/10/20 03:31:07;;;;;;;28.03;25.47;;;;;;;-145.64;100.00;65708.53;5041774;28;20606;-71
2021/10/20 03:33:35;;;;;;;5.00;3.60;;;;;;;-145.64;100.00;65708.53;5043838;28;20245;-71
2021/10/20 03:36:06;;;;;;;4.43;3.60;;;;;;;-145.64;100.00;65708.53;5032142;28;20625;-72
2021/10/20 03:38:34;;;;;;;8.63;3.03;;;;;;;-145.64;100.00;65708.53;5037108;28;20201;-71
2021/10/20 03:41:05;;;;;;;5.60;3.23;;;;;;;-145.64;100.00;65708.53;5033111;28;20209;-67
2021/10/20 03:43:38;;;;;;;4.97;2.97;;;;;;;-145.64;100.00;65708.53;5037895;28;20300;-67
2021/10/20 03:46:07;;;;;;;3.97;3.10;;;;;;;-145.64;100.00;65708.53;5032970;28;20242;-67
2021/10/20 03:48:35;;;;;;;5.00;3.40;;;;;;;-145.64;100.00;65708.53;5037861;28;20200;-67
2021/10/20 03:51:04;;;;;;;3.80;3.30;;;;;;;-145.64;100.00;65708.53;5044141;28;20240;-71
2021/10/20 03:53:33;;;;;;;4.53;3.47;;;;;;;-145.64;100.00;65708.53;5037277;28;20249;-71
2021/10/20 03:56:01;;;;;;;4.83;3.37;;;;;;;-145.64;100.00;65708.53;5042025;28;20282;-70
2021/10/20 03:58:31;;;;;;;4.00;3.40;;;;;;;-145.64;100.00;65708.53;5043215;28;20564;-71
2021/10/20 04:00:59;;;;;;;8.10;3.60;;;;;;;-145.64;100.00;65708.53;5039984;28;20746;-71
2021/10/20 04:03:27;;;;;;;5.03;3.90;;;;;;;-145.64;100.00;65708.53;5043011;28;20669;-72
2021/10/20 04:05:57;;;;;;;5.23;3.97;;;;;;;-145.64;100.00;65708.53;5046567;28;20722;-72
2021/10/20 04:08:25;;;;;;;4.37;3.80;;;;;;;-145.64;100.00;65708.53;5046802;28;20508;-72
2021/10/20 04:10:53;;;;;;;4.73;3.50;;;;;;;-145.64;100.00;65708.53;5045000;28;20724;-72
2021/10/20 04:13:21;;;;;;;7.13;3.80;;;;;;;-145.64;100.00;65708.53;5039175;28;20765;-68
2021/10/20 04:15:52;;;;;;;4.43;2.97;;;;;;;-145.64;100.00;65708.53;5041390;28;20744;-72
2021/10/20 04:18:21;;;;;;;4.40;2.87;;;;;;;-145.64;100.00;65708.53;5046435;28;20250;-72
2021/10/20 04:20:49;;;;;;;3.27;2.47;;;;;;;-145.64;100.00;65708.53;5043469;28;20668;-72
2021/10/20 04:23:17;;;;;;;3.30;2.50;;;;;;;-145.64;100.00;65708.53;5043911;28;20190;-71
2021/10/20 04:25:45;;;;;;;4.83;2.63;;;;;;;-145.64;100.00;65708.53;5040733;28;20640;-68
2021/10/20 04:28:13;;;;;;;10.27;2.60;;;;;;;-145.64;100.00;65708.53;5039656;28;20623;-67
2021/10/20 04:30:42;;;;;;;4.80;2.30;;;;;;;-145.64;100.00;65708.53;5042212;28;20205;-67
2021/10/20 04:33:11;;;;;;;3.00;2.37;;;;;;;-145.64;100.00;65708.53;5040865;28;20671;-71
2021/10/20 04:35:40;;;;;;;2.90;2.27;;;;;;;-145.64;100.00;65708.53;5042697;28;20196;-71
2021/10/20 04:38:08;;;;;;;4.37;2.40;;;;;;;-145.64;100.00;65708.53;5035104;28;20205;-71
2021/10/20 04:40:36;;;;;;;2.17;2.00;;;;;;;-145.64;100.00;65708.53;5039432;28;20232;-71
2021/10/20 04:43:05;;;;;;;2.80;2.30;;;;;;;-145.64;100.00;65708.53;5030151;28;20206;-72
2021/10/20 04:45:33;;;;;;;4.33;2.10;;;;;;;-145.64;100.00;65708.53;5033522;28;20190;-72
2021/10/20 04:48:01;;;;;;;5.40;2.40;;;;;;;-145.64;100.00;65708.53;5034395;28;20204;-72
2021/10/20 04:50:31;;;;;;;4.43;2.40;;;;;;;-145.64;100.00;65708.53;5037671;28;20200;-72
2021/10/20 04:53:00;;;;;;;777.37;539.30;;;;;;;-145.64;100.00;65708.53;5040225;28;20289;-72
2021/10/20 04:55:28;;;;;;;10.00;8.93;;;;;;;-145.64;100.00;65708.53;5068970;28;20323;-72
2021/10/20 04:57:56;;;;;;;18.43;14.13;;;;;;;-145.64;100.00;65708.53;5038084;28;20205;-72
2021/10/20 05:00:25;;;;;;;61.13;55.53;;;;;;;-145.64;100.00;65708.53;5038006;28;20289;-72
2021/10/20 05:02:54;;;;;;;222.87;204.83;;;;;;;-145.64;100.00;65708.53;5038004;28;20686;-72
2021/10/20 05:05:27;;;;;;;96.70;88.37;;;;;;;-145.64;100.00;65708.53;5029666;28;20692;-72
2021/10/20 05:07:58;;;;;;;11.83;10.83;;;;;;;-145.64;100.00;65708.53;5032348;28;20262;-72
2021/10/20 05:10:28;;;;;;;25.30;23.23;;;;;;;-145.64;100.00;65708.53;5039336;28;20226;-72
2021/10/20 05:12:57;;;;;;;14.23;13.03;;;;;;;-145.64;100.00;65708.53;5045201;28;20260;-71
2021/10/20 05:15:25;;;;;;;10.27;9.10;;;;;;;-145.64;100.00;65708.53;5040774;28;20229;-68
2021/10/20 05:17:54;;;;;;;4.33;3.40;;;;;;;-145.64;100.00;65708.53;5036563;28;20336;-69
2021/10/20 05:20:22;;;;;;;27.63;24.87;;;;;;;-145.64;100.00;65708.53;5043213;28;20723;-69
2021/10/20 05:22:51;;;;;;;7.47;6.87;;;;;;;-145.64;100.00;65708.53;5037941;28;20682;-69
2021/10/20 05:25:21;;;;;;;14.23;12.83;;;;;;;-145.64;100.00;65708.53;5040597;28;20244;-69
2021/10/20 05:27:52;;;;;;;46.43;42.33;;;;;;;-145.64;100.00;65708.53;5039543;28;20267;-68
2021/10/20 05:30:20;;;;;;;4.97;3.53;;;;;;;-145.64;100.00;65708.53;5036776;28;20232;-68
2021/10/20 05:32:48;;;;;;;4.40;1.90;;;;;;;-145.64;100.00;65708.53;5040023;28;20201;-68
2021/10/20 05:35:19;;;;;;;3.57;1.50;;;;;;;-145.64;100.00;65708.53;5040242;28;20317;-68
2021/10/20 05:37:50;;;;;;;3.50;1.53;;;;;;;-145.64;100.00;65708.53;5042706;28;20237;-68
2021/10/20 05:40:21;;;;;;;2.40;2.20;;;;;;;-145.64;100.00;65708.53;5040772;28;20267;-66
2021/10/20 05:42:49;;;;;;;6.47;2.13;;;;;;;-145.64;100.00;65708.53;5040016;28;20202;-68
2021/10/20 05:45:17;;;;;;;4.00;1.53;;;;;;;-145.64;100.00;65708.53;5040494;28;20384;-71
2021/10/20 05:47:46;;;;;;;1.60;1.50;;;;;;;-145.64;100.00;65708.53;5046722;28;20201;-70
2021/10/20 05:50:15;;;;;;;3.07;1.57;;;;;;;-145.64;100.00;65708.53;5040368;28;20216;-69
2021/10/20 05:52:44;;;;;;;3.73;1.60;;;;;;;-145.64;100.00;65708.53;5036380;28;20929;-69
2021/10/20 05:55:13;;;;;;;1.57;1.40;;;;;;;-145.64;100.00;65708.53;5042158;28;20229;-70
2021/10/20 05:57:42;;;;;;;4.87;1.50;;;;;;;-145.64;100.00;65708.53;5046932;28;20593;-69
2021/10/20 06:00:13;;;;;;;2.57;1.50;;;;;;;-145.64;100.00;65708.53;5044564;28;20217;-71
2021/10/20 06:02:42;;;;;;;2.40;1.50;;;;;;;-145.64;100.00;65708.53;5042091;28;20194;-68
2021/10/20 06:05:11;;;;;;;2.87;1.60;;;;;;;-145.64;100.00;65708.53;5042276;28;20208;-68
2021/10/20 06:07:41;;;;;;;1.47;1.37;;;;;;;-145.64;100.00;65708.53;5047123;28;20197;-67
2021/10/20 06:10:11;;;;;;;5.40;1.57;;;;;;;-145.64;100.00;65708.53;5040147;28;20627;-68
2021/10/20 06:12:43;;;;;;;3.50;1.40;;;;;;;-145.64;100.00;65708.53;5048522;28;20229;-71
2021/10/20 06:15:14;;;;;;;3.53;1.50;;;;;;;-145.64;100.00;65708.53;5047389;28;20230;-71
2021/10/20 06:18:03;;;;;;;5.50;1.77;;;;;;;-145.64;100.00;65708.53;5049684;28;20404;-71
2021/10/20 06:20:31;;;;;;;7.07;1.70;;;;;;;-145.64;100.00;65708.53;5048409;28;20547;-72
2021/10/20 06:23:00;;;;;;;5.23;1.70;;;;;;;-145.64;100.00;65708.53;5049723;28;20232;-71
2021/10/20 06:25:28;;;;;;;3.40;1.43;;;;;;;-145.64;100.00;65708.53;5049787;28;20292;-71
2021/10/20 06:27:58;;;;;;;7.80;1.70;;;;;;;-145.64;100.00;65708.53;5048367;28;20332;-71
2021/10/20 06:30:26;;;;;;;3.20;1.83;;;;;;;-145.64;100.00;65708.53;5050232;28;20225;-71
2021/10/20 06:32:55;;;;;;;3.17;1.57;;;;;;;-145.64;100.00;65708.53;5065548;28;20241;-71
2021/10/20 06:35:23;;;;;;;5.63;1.57;;;;;;;-145.64;100.00;65708.53;5049367;28;20310;-71
2021/10/20 06:37:53;;;;;;;5.60;1.80;;;;;;;-145.64;100.00;65708.53;5049711;28;20284;-71
2021/10/20 06:40:22;;;;;;;2.30;1.50;;;;;;;-145.64;100.00;65708.53;5049470;28;20947;-71
2021/10/20 06:42:50;;;;;;;6.17;1.60;;;;;;;-145.64;100.00;65708.53;5049730;28;20225;-71
2021/10/20 06:45:20;;;;;;;6.30;1.90;;;;;;;-145.64;100.00;65708.53;5049287;28;20197;-71
2021/10/20 06:47:48;;;;;;;776.07;548.67;;;;;;;-145.64;100.00;65708.53;5049479;28;20232;-71
2021/10/20 06:50:17;;;;;;;188.23;150.47;;;;;;;-145.64;100.00;65708.53;5045984;28;20689;-72
2021/10/20 06:52:46;;;;;;;65.60;59.47;;;;;;;-145.64;100.00;65708.53;5049155;28;20223;-71
2021/10/20 06:55:15;;;;;;;317.97;289.73;;;;;;;-145.64;100.00;65708.53;5049230;28;20210;-71
2021/10/20 06:57:43;;;;;;;21.27;17.50;;;;;;;-145.64;100.00;65708.53;5049509;28;20206;-71
2021/10/20 07:00:12;;;;;;;82.20;75.27;;;;;;;-145.64;100.00;65708.53;5047938;28;20208;-71
2021/10/20 07:02:42;;;;;;;4.43;2.50;;;;;;;-145.64;100.00;65708.53;5049347;28;20221;-71
2021/10/20 07:05:11;;;;;;;13.27;12.13;;;;;;;-145.64;100.00;65708.53;5049061;28;20268;-71
2021/10/20 07:07:39;;;;;;;6.83;4.17;;;;;;;-145.64;100.00;65708.53;5049363;28;20226;-71
2021/10/20 07:10:09;;;;;;;12.53;10.00;;;;;;;-145.64;100.00;65708.53;5048959;28;20232;-72
2021/10/20 07:12:38;;;;;;;14.37;12.40;;;;;;;-145.64;100.00;65708.53;5049335;28;20201;-71
2021/10/20 07:15:07;;;;;;;16.93;15.23;;;;;;;-145.64;100.00;65708.53;5048899;28;20210;-72
2021/10/20 07:17:36;;;;;;;11.83;5.00;;;;;;;-145.64;100.00;65708.53;5049078;28;20272;-71
2021/10/20 07:20:07;;;;;;;51.60;46.80;;;;;;;-145.64;100.00;65708.53;5047321;28;20640;-71
2021/10/20 07:22:38;;;;;;;180.40;163.17;;;;;;;-145.64;100.00;65708.53;5035762;28;20248;-71
2021/10/20 07:25:09;;;;;;;8.10;6.03;;;;;;;-145.64;100.00;65708.53;5048787;28;20246;-71
2021/10/20 07:27:37;;;;;;;3.00;1.60;;;;;;;-145.64;100.00;65708.53;5034830;28;20236;-71
2021/10/20 07:30:08;;;;;;;2.47;1.30;;;;;;;-145.64;100.00;65708.53;5048434;28;20275;-71
2021/10/20 07:32:39;;;;;;;5.43;1.53;;;;;;;-145.64;100.00;65708.53;5048940;28;20204;-72
2021/10/20 07:35:10;;;;;;;2.07;1.30;;;;;;;-145.64;100.00;65708.53;5048219;28;20628;-71
2021/10/20 07:37:40;;;;;;;1.60;1.20;;;;;;;-145.64;100.00;65708.53;5048645;28;20591;-71
2021/10/20 07:40:10;;;;;;;3.17;1.50;;;;;;;-145.64;100.00;65708.53;5048164;28;20201;-71
2021/10/20 07:42:39;;;;;;;1.30;1.20;;;;;;;-145.64;100.00;65708.53;5048475;28;20498;-71
2021/10/20 07:45:10;;;;;;;3.40;1.30;;;;;;;-145.64;100.00;65708.53;5048433;28;20224;-71
2021/10/20 07:47:39;;;;;;;1.93;1.17;;;;;;;-145.64;100.00;65708.53;5047268;28;20296;-71
2021/10/20 07:50:09;;;;;;;1.80;1.40;;;;;;;-145.64;100.00;65708.53;5048199;28;20194;-71
2021/10/20 07:52:37;;;;;;;5.33;1.40;;;;;;;-145.64;100.00;65708.53;5048760;28;20201;-71
2021/10/20 07:55:07;;;;;;;2.27;1.30;;;;;;;-145.64;100.00;65708.53;5046555;28;20411;-72
2021/10/20 07:57:36;;;;;;;1.63;1.10;;;;;;;-145.64;100.00;65708.53;5048086;28;20284;-72
2021/10/20 08:00:06;;;;;;;2.70;1.20;;;;;;;-145.64;100.00;65708.53;5048142;28;20225;-71
2021/10/20 08:02:35;;;;;;;4.23;0.90;;;;;;;-145.64;100.00;65708.53;5048243;28;20233;-72
2021/10/20 08:05:04;;;;;;;2.90;1.20;;;;;;;-145.64;100.00;65708.53;5047637;28;20731;-72
2021/10/20 08:07:34;;;;;;;1.20;1.07;;;;;;;-145.64;100.00;65708.53;5046276;28;20198;-72
2021/10/20 08:10:02;;;;;;;3.10;1.27;;;;;;;-145.64;100.00;65708.53;5047995;28;20205;-72
2021/10/20 08:12:30;;;;;;;1.20;1.10;;;;;;;-145.64;100.00;65708.53;5048115;28;20489;-72
2021/10/20 08:15:00;;;;;;;3.70;1.43;;;;;;;-145.64;100.00;65708.53;5046577;28;20198;-73
2021/10/20 08:17:28;;;;;;;1.97;1.10;;;;;;;-145.64;100.00;65708.53;5047839;28;20691;-72
2021/10/20 08:19:56;;;;;;;1.17;1.07;;;;;;;-145.64;100.00;65708.53;5047893;28;20287;-72
2021/10/20 08:22:25;;;;;;;1.63;1.10;;;;;;;-145.64;100.00;65708.53;5047224;28;20744;-72
2021/10/20 08:24:55;;;;;;;1.00;0.90;;;;;;;-145.64;100.00;65708.53;5048284;28;20230;-72
2021/10/20 08:27:23;;;;;;;2.67;1.20;;;;;;;-145.64;100.00;65708.53;5046988;28;20904;-72
2021/10/20 08:29:51;;;;;;;1.87;1.13;;;;;;;-145.64;100.00;65708.53;5047991;28;20255;-72
2021/10/20 08:32:19;;;;;;;407.27;347.83;;;;;;;-145.64;100.00;65708.53;5047227;28;20217;-72
2021/10/20 08:34:50;;;;;;;29.27;22.67;;;;;;;-145.64;100.00;65708.53;5047828;28;20209;-72
2021/10/20 08:37:19;;;;;;;17.63;15.77;;;;;;;-145.64;100.00;65708.53;5044453;28;20305;-73
2021/10/20 08:39:47;;;;;;;102.23;93.80;;;;;;;-145.64;100.00;65708.53;5047714;28;20226;-72
2021/10/20 08:42:17;;;;;;;27.57;25.20;;;;;;;-145.64;100.00;65708.53;5046958;28;20201;-72
2021/10/20 08:45:05;;;;;;;10.90;10.00;;;;;;;-145.64;100.00;65708.53;5045858;28;20202;-72
2021/10/20 08:47:34;;;;;;;7.40;6.70;;;;;;;-145.64;100.00;65708.53;5047278;28;20297;-72
2021/10/20 08:50:04;;;;;;;12.90;11.87;;;;;;;-145.64;100.00;65708.53;5047385;28;20201;-72
2021/10/20 08:52:33;;;;;;;8.47;7.67;;;;;;;-145.64;100.00;65708.53;5047523;28;20202;-72
2021/10/20 08:55:02;;;;;;;5.03;4.40;;;;;;;-145.64;100.00;65708.53;5047448;28;20280;-72
2021/10/20 08:57:31;;;;;;;6.97;6.47;;;;;;;-145.64;100.00;65708.53;5031793;28;20353;-73
2021/10/20 09:00:04;;;;;;;15.17;13.87;;;;;;;-145.64;100.00;65708.53;5034015;28;20566;-72
2021/10/20 09:02:37;;;;;;;6.37;5.87;;;;;;;-145.64;100.00;65708.53;5047305;28;20209;-73
2021/10/20 09:05:12;;;;;;;4.00;1.60;;;;;;;-145.64;100.00;65708.53;5062377;28;20202;-73
2021/10/20 09:07:41;;;;;;;9.90;9.13;;;;;;;-145.64;100.00;65708.53;5046255;28;20225;-73
2021/10/20 09:10:11;;;;;;;1.70;1.60;;;;;;;-145.64;100.00;65708.53;5033415;28;20200;-73
2021/10/20 09:12:41;;;;;;;1.30;1.20;;;;;;;-145.64;100.00;65708.53;5047329;28;20274;-72
2021/10/20 09:15:12;;;;;;;1.90;0.80;;;;;;;-145.64;100.00;65708.53;5049545;28;20189;-73
2021/10/20 09:17:46;;;;;;;1.00;1.00;;;;;;;-145.64;100.00;65708.53;5051115;28;20222;-72
2021/10/20 09:20:20;;;;;;;1.27;1.00;;;;;;;-145.64;100.00;65708.53;5050606;28;20225;-72
2021/10/20 09:22:57;;;;;;;1.23;0.97;;;;;;;-145.64;100.00;65708.53;5050376;28;20312;-72
2021/10/20 09:25:32;;;;;;;1.63;0.90;;;;;;;-145.64;100.00;65708.53;5050819;28;20714;-72
2021/10/20 09:28:06;;;;;;;1.23;1.13;;;;;;;-145.64;100.00;65708.53;5050805;28;20256;-72
2021/10/20 09:30:34;;;;;;;5.70;1.37;;;;;;;-145.64;100.00;65708.53;5050871;28;20193;-72
2021/10/20 09:33:03;;;;;;;1.00;1.00;;;;;;;-145.64;100.00;65708.53;5051021;28;20661;-72
2021/10/20 09:35:33;;;;;;;2.00;0.80;;;;;;;-145.64;100.00;65708.53;5050947;28;20271;-73
2021/10/20 09:38:02;;;;;;;1.13;0.73;;;;;;;-145.64;100.00;65708.53;5047670;28;20253;-72
2021/10/20 09:40:37;;;;;;;1.37;0.70;;;;;;;-145.64;100.00;65708.53;5050719;28;20214;-72
2021/10/20 09:43:08;;;;;;;2.33;0.87;;;;;;;-145.64;100.00;65708.53;5049025;28;20202;-73
2021/10/20 09:45:39;;;;;;;2.13;1.00;;;;;;;-145.64;100.00;65708.53;5050867;28;20205;-73
2021/10/20 09:48:13;;;;;;;1.50;1.00;;;;;;;-145.64;100.00;65708.53;5050270;28;20544;-72
2021/10/20 09:51:08;;;;;;;1.03;0.93;;;;;;;-145.64;100.00;65708.53;5050689;28;20218;-72
2021/10/20 09:53:37;;;;;;;1.17;1.03;;;;;;;-145.64;100.00;65708.53;5050594;28;20198;-73
2021/10/20 09:56:21;;;;;;;3.23;1.00;;;;;;;-145.64;100.00;65708.53;5049985;28;20259;-73
2021/10/20 09:58:52;;;;;;;2.80;1.00;;;;;;;-145.64;100.00;65708.53;5050552;28;20229;-72
2021/10/20 10:01:22;;;;;;;3.67;1.20;;;;;;;-145.64;100.00;65708.53;5050309;28;20194;-72
2021/10/20 10:03:52;;;;;;;1.73;0.93;;;;;;;-145.64;100.00;65708.53;5050394;28;20194;-72
2021/10/20 10:06:21;;;;;;;1.67;1.10;;;;;;;-145.64;100.00;65708.53;5049814;28;20662;-73
2021/10/20 10:08:50;;;;;;;2.00;1.20;;;;;;;-145.64;100.00;65708.53;5048523;28;20204;-72
2021/10/20 10:11:19;;;;;;;1.10;1.00;;;;;;;-145.64;100.00;65708.53;5050080;28;20198;-73
2021/10/20 10:13:52;;;;;;;6.13;1.20;;;;;;;-145.64;100.00;65708.53;5050364;28;20209;-72
2021/10/20 10:16:23;;;;;;;3.00;1.10;;;;;;;-145.64;100.00;65708.53;5048336;28;20264;-72
2021/10/20 10:18:56;;;;;;;1.37;1.00;;;;;;;-145.64;100.00;65708.53;5082086;28;20198;-72
2021/10/20 10:21:32;;;;;;;1.90;1.10;;;;;;;-145.64;100.00;65708.53;5049920;28;20646;-73
2021/10/20 10:24:03;;;;;;;405.97;335.17;;;;;;;-145.64;100.00;65708.53;5050214;28;20656;-72
2021/10/20 10:26:36;;;;;;;14.57;11.37;;;;;;;-145.64;100.00;65708.53;5049497;28;20194;-71
2021/10/20 10:29:13;;;;;;;4.77;4.37;;;;;;;-145.64;100.00;65708.53;5049434;28;20226;-72
2021/10/20 10:31:44;;;;;;;5.53;5.00;;;;;;;-145.64;100.00;65708.53;5050043;28;20201;-73
2021/10/20 10:34:19;;;;;;;20.47;18.37;;;;;;;-145.64;100.00;65708.53;5049621;28;20197;-73
2021/10/20 10:36:52;;;;;;;8.53;6.23;;;;;;;-145.64;100.00;65708.53;5049841;28;20217;-72
2021/10/20 10:39:21;;;;;;;3.37;1.93;;;;;;;-145.64;100.00;65708.53;5047005;28;20304;-72
2021/10/20 10:41:49;;;;;;;7.50;6.80;;;;;;;-145.64;100.00;65708.53;5049834;28;20622;-73
2021/10/20 10:44:23;;;;;;;20.70;18.70;;;;;;;-145.64;100.00;65708.53;5049182;28;20224;-72
2021/10/20 10:47:17;;;;;;;3.47;3.27;;;;;;;-145.64;100.00;65708.53;5049784;28;20506;-72
2021/10/20 10:49:52;;;;;;;3.03;2.70;;;;;;;-145.64;100.00;65708.53;5048590;28;20292;-72
2021/10/20 10:52:28;;;;;;;4.93;4.47;;;;;;;-145.64;100.00;65708.53;5049046;28;20251;-72
2021/10/20 10:55:13;;;;;;;33.43;30.67;;;;;;;-145.64;100.00;65708.53;5049821;28;20293;-73
2021/10/20 10:57:45;;;;;;;5.50;5.10;;;;;;;-145.64;100.00;65708.53;5049388;28;20308;-72
2021/10/20 11:00:36;;;;;;;1.70;1.27;;;;;;;-145.64;100.00;65708.53;5048837;28;20285;-72
2021/10/20 11:03:23;;;;;;;1.53;1.20;;;;;;;-145.64;100.00;65708.53;5049022;28;20198;-72
2021/10/20 11:05:55;;;;;;;3.27;1.10;;;;;;;-145.64;100.00;65708.53;5049565;28;20190;-73
2021/10/20 11:08:23;;;;;;;1.90;1.47;;;;;;;-145.64;100.00;65708.53;5047314;28;20228;-73
2021/10/20 11:10:52;;;;;;;1.97;1.40;;;;;;;-145.64;100.00;65708.53;5049241;28;20232;-73
2021/10/20 11:13:21;;;;;;;1.20;1.10;;;;;;;-145.64;100.00;65708.53;5049033;28;20529;-73
2021/10/20 11:15:51;;;;;;;1.80;1.13;;;;;;;-145.64;100.00;65708.53;5049275;28;20198;-74
2021/10/20 11:18:21;;;;;;;0.80;0.80;;;;;;;-145.64;100.00;65708.53;5048998;28;20578;-73